createdAt,value
2018-08-10T00:01:16.226Z,1.47
2018-08-10T00:03:44.365Z,1.27
2018-08-10T00:06:12.510Z,1.47
2018-08-10T00:08:40.662Z,1.50
2018-08-10T00:11:08.808Z,1.50
2018-08-10T00:13:36.957Z,1.60
2018-08-10T00:16:05.106Z,1.50
2018-08-10T00:18:33.239Z,2.00
2018-08-10T00:21:01.375Z,1.47
2018-08-10T00:23:29.522Z,1.60
2018-08-10T00:25:57.653Z,1.43
2018-08-10T00:28:25.797Z,1.50
2018-08-10T00:30:53.937Z,1.77
2018-08-10T00:33:22.082Z,1.57
2018-08-10T00:35:50.242Z,1.77
2018-08-10T00:38:18.381Z,1.43
2018-08-10T00:40:46.529Z,1.43
2018-08-10T00:43:14.686Z,1.50
2018-08-10T00:45:42.810Z,1.47
2018-08-10T00:48:10.969Z,1.50
2018-08-10T00:50:39.105Z,1.30
2018-08-10T00:53:07.243Z,1.10
2018-08-10T00:55:35.431Z,1.20
2018-08-10T00:58:03.561Z,1.13
2018-08-10T01:00:31.701Z,1.10
2018-08-10T01:02:59.834Z,1.17
2018-08-10T01:05:28.030Z,0.90
2018-08-10T01:07:56.170Z,1.00
2018-08-10T01:10:24.331Z,1.03
2018-08-10T01:12:52.451Z,0.90
2018-08-10T01:15:20.594Z,1.10
2018-08-10T01:17:48.724Z,1.30
2018-08-10T01:20:21.425Z,1.07
2018-08-10T01:22:54.965Z,0.90
2018-08-10T01:25:24.449Z,0.80
2018-08-10T01:27:58.889Z,0.80
2018-08-10T01:30:28.253Z,0.70
2018-08-10T01:32:56.461Z,0.80
2018-08-10T01:35:25.258Z,0.90
2018-08-10T01:37:53.685Z,0.80
2018-08-10T01:40:21.826Z,0.70
2018-08-10T01:42:49.970Z,0.70
2018-08-10T01:45:18.208Z,0.80
2018-08-10T01:47:46.511Z,0.90
2018-08-10T01:50:14.662Z,0.80
2018-08-10T01:52:43.194Z,0.70
2018-08-10T01:55:11.718Z,0.77
2018-08-10T01:57:40.070Z,0.90
2018-08-10T02:00:09.033Z,0.80
2018-08-10T02:02:37.361Z,0.70
2018-08-10T02:05:07.105Z,0.80
2018-08-10T02:07:38.185Z,0.60
2018-08-10T02:10:08.113Z,0.60
2018-08-10T02:12:36.388Z,0.60
2018-08-10T02:15:06.497Z,0.80
2018-08-10T02:17:34.654Z,0.60
2018-08-10T02:20:02.798Z,0.60
2018-08-10T02:22:30.961Z,0.67
2018-08-10T02:24:59.110Z,0.67
2018-08-10T02:27:27.263Z,0.47
2018-08-10T02:29:55.421Z,0.53
2018-08-10T02:32:23.565Z,0.70
2018-08-10T02:34:51.706Z,0.53
2018-08-10T02:37:19.842Z,0.60
2018-08-10T02:39:47.990Z,0.60
2018-08-10T02:42:16.141Z,0.50
2018-08-10T02:44:44.273Z,0.40
2018-08-10T02:47:12.422Z,0.50
2018-08-10T02:49:40.560Z,0.60
2018-08-10T02:52:08.848Z,0.60
2018-08-10T02:54:36.974Z,0.60
2018-08-10T02:57:05.166Z,0.47
2018-08-10T02:59:33.302Z,0.70
2018-08-10T03:02:01.460Z,0.70
2018-08-10T03:04:29.598Z,0.60
2018-08-10T03:06:57.746Z,0.50
2018-08-10T03:09:25.878Z,0.60
2018-08-10T03:11:54.030Z,0.60
2018-08-10T03:14:22.170Z,0.60
2018-08-10T03:16:50.322Z,0.77
2018-08-10T03:19:18.554Z,0.60
2018-08-10T03:21:46.695Z,0.60
2018-08-10T03:24:14.836Z,0.70
2018-08-10T03:26:42.989Z,0.57
2018-08-10T03:29:11.174Z,0.60
2018-08-10T03:31:39.332Z,0.80
2018-08-10T03:34:07.502Z,0.57
2018-08-10T03:36:35.633Z,0.40
2018-08-10T03:39:05.882Z,0.60
2018-08-10T03:41:34.046Z,0.80
2018-08-10T03:44:02.193Z,0.70
2018-08-10T03:46:30.374Z,0.63
2018-08-10T03:48:58.539Z,0.77
2018-08-10T03:51:26.685Z,0.70
2018-08-10T03:53:54.865Z,0.60
2018-08-10T03:56:22.998Z,0.60
2018-08-10T03:58:51.146Z,0.70
2018-08-10T04:01:19.283Z,0.40
2018-08-10T04:03:47.433Z,0.60
2018-08-10T04:06:15.588Z,0.60
2018-08-10T04:08:43.733Z,0.60
2018-08-10T04:11:11.877Z,0.70
2018-08-10T04:13:40.034Z,0.77
2018-08-10T04:16:08.161Z,0.60
2018-08-10T04:18:36.317Z,0.50
2018-08-10T04:21:04.510Z,0.70
2018-08-10T04:23:32.680Z,0.50
2018-08-10T04:26:00.922Z,0.90
2018-08-10T04:28:29.060Z,0.67
2018-08-10T04:30:57.198Z,0.70
2018-08-10T04:33:25.350Z,0.70
2018-08-10T04:35:53.513Z,0.73
2018-08-10T04:38:21.686Z,0.83
2018-08-10T04:40:49.830Z,0.70
2018-08-10T04:43:17.970Z,0.70
2018-08-10T04:45:46.121Z,0.93
2018-08-10T04:48:14.261Z,1.00
2018-08-10T04:50:42.946Z,0.60
2018-08-10T04:53:11.116Z,0.80
2018-08-10T04:55:39.284Z,0.70
2018-08-10T04:58:07.430Z,0.63
2018-08-10T05:00:35.597Z,0.97
2018-08-10T05:03:04.037Z,0.60
2018-08-10T05:05:32.186Z,0.50
2018-08-10T05:08:00.378Z,0.60
2018-08-10T05:10:28.526Z,0.77
2018-08-10T05:12:56.685Z,0.70
2018-08-10T05:15:24.879Z,0.60
2018-08-10T05:17:53.047Z,0.70
2018-08-10T05:20:21.221Z,0.70
2018-08-10T05:22:49.391Z,0.70
2018-08-10T05:25:17.548Z,0.80
2018-08-10T05:27:45.702Z,0.70
2018-08-10T05:30:13.821Z,0.77
2018-08-10T05:32:41.986Z,0.63
2018-08-10T05:35:10.738Z,0.70
2018-08-10T05:37:38.912Z,0.60
2018-08-10T05:40:08.010Z,0.57
2018-08-10T05:42:36.190Z,0.67
2018-08-10T05:45:05.420Z,0.70
2018-08-10T05:47:33.565Z,0.70
2018-08-10T05:50:01.707Z,0.70
2018-08-10T05:52:29.887Z,0.70
2018-08-10T05:54:58.015Z,0.63
2018-08-10T05:57:26.224Z,0.60
2018-08-10T05:59:54.333Z,1.03
2018-08-10T06:02:22.453Z,0.77
2018-08-10T06:04:50.579Z,0.90
2018-08-10T06:07:18.709Z,0.93
2018-08-10T06:09:46.881Z,0.80
2018-08-10T06:12:15.041Z,0.83
2018-08-10T06:14:43.168Z,0.90
2018-08-10T06:17:11.289Z,0.70
2018-08-10T06:19:39.471Z,0.77
2018-08-10T06:22:07.602Z,0.60
2018-08-10T06:24:35.729Z,0.60
2018-08-10T06:27:04.317Z,0.60
2018-08-10T06:29:32.482Z,0.67
2018-08-10T06:32:00.701Z,0.60
2018-08-10T06:34:28.866Z,0.70
2018-08-10T06:36:57.009Z,0.70
2018-08-10T06:39:25.189Z,0.70
2018-08-10T06:41:53.353Z,0.70
2018-08-10T06:44:21.519Z,0.60
2018-08-10T06:46:49.685Z,0.70
2018-08-10T06:49:17.842Z,0.60
2018-08-10T06:51:45.991Z,0.60
2018-08-10T06:54:14.129Z,0.60
2018-08-10T06:56:42.282Z,0.90
2018-08-10T06:59:10.437Z,0.80
2018-08-10T07:01:38.669Z,0.60
2018-08-10T07:04:06.759Z,0.60
2018-08-10T07:06:34.978Z,0.70
2018-08-10T07:09:03.210Z,0.53
2018-08-10T07:11:31.343Z,0.50
2018-08-10T07:13:59.517Z,0.80
2018-08-10T07:16:27.653Z,0.87
2018-08-10T07:18:55.805Z,0.60
2018-08-10T07:21:23.956Z,0.70
2018-08-10T07:23:52.101Z,0.77
2018-08-10T07:26:20.338Z,0.77
2018-08-10T07:28:49.273Z,0.70
2018-08-10T07:31:17.444Z,0.70
2018-08-10T07:33:45.609Z,0.70
2018-08-10T07:36:13.813Z,0.80
2018-08-10T07:38:41.922Z,0.57
2018-08-10T07:41:10.149Z,0.57
2018-08-10T07:43:38.313Z,0.80
2018-08-10T07:46:06.482Z,0.80
2018-08-10T07:48:40.046Z,0.70
2018-08-10T07:51:08.306Z,0.60
2018-08-10T07:53:36.513Z,0.60
2018-08-10T07:56:04.670Z,0.60
2018-08-10T07:58:32.824Z,0.60
2018-08-10T08:01:00.953Z,0.70
2018-08-10T08:03:29.131Z,0.63
2018-08-10T08:05:57.285Z,0.67
2018-08-10T08:08:25.457Z,0.70
2018-08-10T08:10:53.618Z,0.60
2018-08-10T08:13:21.770Z,0.87
2018-08-10T08:15:49.925Z,0.60
2018-08-10T08:18:18.087Z,0.50
2018-08-10T08:21:17.405Z,0.60
2018-08-10T08:23:45.554Z,0.73
2018-08-10T08:26:13.721Z,0.70
2018-08-10T08:28:41.906Z,0.70
2018-08-10T08:31:10.066Z,0.90
2018-08-10T08:33:49.588Z,0.80
2018-08-10T08:36:17.738Z,0.50
2018-08-10T08:40:14.571Z,0.77
2018-08-10T08:42:44.006Z,0.70
2018-08-10T08:46:15.482Z,0.60
2018-08-10T08:48:45.658Z,0.60
2018-08-10T08:51:17.409Z,0.63
2018-08-10T08:53:45.607Z,0.67
2018-08-10T08:56:18.060Z,0.50
2018-08-10T08:58:47.570Z,0.60
2018-08-10T09:01:16.123Z,0.80
2018-08-10T09:04:59.738Z,0.53
2018-08-10T09:07:28.816Z,0.70
2018-08-10T09:09:57.198Z,0.67
2018-08-10T09:12:25.329Z,0.77
2018-08-10T09:15:04.185Z,0.60
2018-08-10T09:17:32.390Z,0.60
2018-08-10T09:20:00.526Z,0.93
2018-08-10T09:22:28.838Z,0.70
2018-08-10T09:24:57.018Z,0.80
2018-08-10T09:27:25.150Z,0.70
2018-08-10T09:29:53.294Z,0.60
2018-08-10T09:32:21.441Z,0.60
2018-08-10T09:34:49.619Z,0.80
2018-08-10T09:37:17.757Z,0.97
2018-08-10T09:39:45.914Z,0.80
2018-08-10T09:42:14.110Z,0.63
2018-08-10T09:44:42.277Z,0.93
2018-08-10T09:47:10.594Z,0.60
2018-08-10T09:49:42.697Z,0.70
2018-08-10T09:52:10.919Z,0.93
2018-08-10T09:55:20.725Z,0.70
2018-08-10T09:57:50.139Z,0.60
2018-08-10T10:00:23.799Z,0.60
2018-08-10T10:02:59.090Z,0.60
2018-08-10T10:05:27.418Z,0.50
2018-08-10T10:07:55.950Z,0.60
2018-08-10T10:10:24.278Z,0.60
2018-08-10T10:12:52.438Z,1.03
2018-08-10T10:15:20.831Z,0.77
2018-08-10T10:17:49.077Z,0.57
2018-08-10T10:20:17.418Z,0.60
2018-08-10T10:22:46.089Z,0.70
2018-08-10T10:25:14.266Z,0.60
2018-08-10T10:27:42.567Z,0.67
2018-08-10T10:30:10.738Z,0.60
2018-08-10T10:32:38.952Z,0.60
2018-08-10T10:35:07.058Z,0.50
2018-08-10T10:37:35.273Z,0.53
2018-08-10T10:40:03.479Z,0.70
2018-08-10T10:42:31.639Z,0.60
2018-08-10T10:44:59.781Z,0.70
2018-08-10T10:47:28.037Z,0.50
2018-08-10T10:49:56.178Z,0.57
2018-08-10T10:52:24.354Z,0.60
2018-08-10T10:54:52.506Z,0.70
2018-08-10T10:57:20.669Z,0.80
2018-08-10T10:59:48.813Z,0.60
2018-08-10T11:02:16.977Z,0.70
2018-08-10T11:04:45.139Z,0.70
2018-08-10T11:07:13.289Z,0.80
2018-08-10T11:09:41.483Z,0.70
2018-08-10T11:12:09.689Z,0.60
2018-08-10T11:14:37.833Z,0.70
2018-08-10T11:17:06.031Z,0.70
2018-08-10T11:19:34.190Z,0.60
2018-08-10T11:22:02.364Z,0.70
2018-08-10T11:24:30.544Z,0.60
2018-08-10T11:26:58.698Z,0.57
2018-08-10T11:29:26.842Z,0.50
2018-08-10T11:31:55.203Z,0.50
2018-08-10T11:34:23.342Z,1.63
2018-08-10T11:36:51.504Z,0.63
2018-08-10T11:39:19.654Z,0.53
2018-08-10T11:41:47.814Z,0.80
2018-08-10T11:44:15.972Z,0.70
2018-08-10T11:46:44.130Z,0.60
2018-08-10T11:49:12.278Z,0.57
2018-08-10T11:51:40.458Z,0.60
2018-08-10T11:54:08.614Z,0.60
2018-08-10T11:56:36.789Z,0.80
2018-08-10T11:59:04.961Z,0.67
2018-08-10T12:01:33.106Z,0.77
2018-08-10T12:04:01.358Z,0.70
2018-08-10T12:06:29.526Z,0.70
2018-08-10T12:08:57.681Z,0.57
2018-08-10T12:11:25.857Z,0.80
2018-08-10T12:13:54.017Z,1.00
2018-08-10T12:16:22.145Z,0.70
2018-08-10T12:18:50.306Z,0.63
2018-08-10T12:21:18.449Z,0.70
2018-08-10T12:23:46.605Z,0.70
2018-08-10T12:26:14.779Z,0.70
2018-08-10T12:28:42.929Z,1.00
2018-08-10T12:31:11.061Z,0.60
2018-08-10T12:33:39.219Z,0.70
2018-08-10T12:36:08.587Z,0.70
2018-08-10T12:38:37.526Z,0.67
2018-08-10T12:41:05.713Z,0.70
2018-08-10T12:43:33.845Z,0.90
2018-08-10T12:46:01.970Z,0.60
2018-08-10T12:48:30.122Z,0.63
2018-08-10T12:50:58.270Z,0.70
2018-08-10T12:53:26.553Z,0.83
2018-08-10T12:55:54.735Z,0.80
2018-08-10T12:58:22.914Z,0.70
2018-08-10T13:00:51.042Z,0.77
2018-08-10T13:03:19.242Z,1.10
2018-08-10T13:05:47.350Z,0.73
2018-08-10T13:08:15.488Z,0.70
2018-08-10T13:10:43.709Z,0.80
2018-08-10T13:13:11.806Z,0.80
2018-08-10T13:15:39.938Z,1.00
2018-08-10T13:18:08.054Z,0.80
2018-08-10T13:20:36.185Z,0.60
2018-08-10T13:23:04.409Z,0.60
2018-08-10T13:25:32.529Z,0.80
2018-08-10T13:28:00.670Z,0.70
2018-08-10T13:30:28.827Z,0.60
2018-08-10T13:32:56.966Z,0.80
2018-08-10T13:35:25.194Z,0.90
2018-08-10T13:37:53.286Z,0.70
2018-08-10T13:40:21.428Z,0.90
2018-08-10T13:42:49.642Z,0.70
2018-08-10T13:45:17.734Z,0.90
2018-08-10T13:47:45.930Z,0.90
2018-08-10T13:50:15.698Z,0.90
2018-08-10T13:52:43.950Z,1.30
2018-08-10T13:55:14.795Z,0.83
2018-08-10T13:57:42.942Z,0.80
2018-08-10T14:00:15.321Z,0.90
2018-08-10T14:02:43.521Z,0.70
2018-08-10T14:05:11.670Z,0.90
2018-08-10T14:07:39.857Z,0.90
2018-08-10T14:10:08.001Z,0.80
2018-08-10T14:12:36.157Z,0.80
2018-08-10T14:15:04.946Z,0.70
2018-08-10T14:17:33.082Z,1.40
2018-08-10T14:29:10.579Z,0.90
2018-08-10T14:31:38.957Z,1.40
2018-08-10T14:34:07.566Z,0.97
2018-08-10T14:36:35.780Z,0.70
2018-08-10T14:39:05.828Z,0.90
2018-08-10T14:41:34.034Z,0.80
2018-08-10T14:44:02.205Z,0.77
2018-08-10T14:46:30.370Z,0.70
2018-08-10T14:48:58.530Z,0.70
2018-08-10T14:51:26.679Z,0.60
2018-08-10T14:53:54.894Z,0.80
2018-08-10T14:56:23.033Z,0.80
2018-08-10T14:58:51.166Z,0.60
2018-08-10T15:01:19.317Z,0.80
2018-08-10T15:03:47.474Z,0.77
2018-08-10T15:06:15.643Z,0.70
2018-08-10T15:08:43.766Z,0.73
2018-08-10T15:11:12.010Z,0.90
2018-08-10T15:13:40.120Z,0.70
2018-08-10T15:16:08.254Z,0.90
2018-08-10T15:18:36.385Z,0.90
2018-08-10T15:21:04.545Z,0.90
2018-08-10T15:23:32.666Z,0.73
2018-08-10T15:26:00.798Z,0.70
2018-08-10T15:28:28.924Z,0.90
2018-08-10T15:30:57.144Z,0.70
2018-08-10T15:33:25.286Z,0.97
2018-08-10T15:35:53.521Z,0.80
2018-08-10T15:38:21.704Z,0.90
2018-08-10T15:40:49.834Z,1.00
2018-08-10T15:43:17.962Z,0.80
2018-08-10T15:45:46.089Z,0.90
2018-08-10T15:48:14.217Z,0.90
2018-08-10T15:50:42.361Z,0.90
2018-08-10T15:53:10.502Z,0.90
2018-08-10T15:55:38.700Z,0.80
2018-08-10T15:58:06.805Z,0.80
2018-08-10T16:00:34.936Z,1.27
2018-08-10T16:03:03.053Z,0.80
2018-08-10T16:08:38.129Z,0.80
2018-08-10T16:11:06.446Z,0.80
2018-08-10T16:13:34.593Z,0.70
2018-08-10T16:16:02.775Z,0.97
2018-08-10T16:18:31.162Z,0.70
2018-08-10T16:20:59.362Z,0.87
2018-08-10T16:23:27.568Z,0.83
2018-08-10T16:25:55.765Z,0.90
2018-08-10T16:28:23.973Z,0.97
2018-08-10T16:30:52.126Z,0.87
2018-08-10T16:33:20.311Z,0.90
2018-08-10T16:35:48.476Z,0.93
2018-08-10T16:38:16.651Z,0.70
2018-08-10T16:40:44.862Z,0.97
2018-08-10T16:43:13.037Z,1.00
2018-08-10T16:45:41.197Z,4.20
2018-08-10T16:48:09.387Z,0.80
2018-08-10T16:50:37.616Z,0.80
2018-08-10T16:53:05.770Z,0.60
2018-08-10T16:55:33.960Z,0.80
2018-08-10T16:58:02.119Z,0.80
2018-08-10T17:00:30.312Z,0.90
2018-08-10T17:02:58.507Z,0.70
2018-08-10T17:05:26.699Z,0.80
2018-08-10T17:07:54.875Z,0.60
2018-08-10T17:10:23.045Z,0.73
2018-08-10T17:12:51.211Z,0.80
2018-08-10T17:15:20.163Z,1.00
2018-08-10T17:17:48.807Z,0.60
2018-08-10T17:20:17.694Z,0.80
2018-08-10T17:22:46.186Z,0.70
2018-08-10T17:25:17.018Z,0.73
2018-08-10T17:27:45.234Z,0.70
2018-08-10T17:30:14.490Z,0.60
2018-08-10T17:32:42.688Z,0.90
2018-08-10T17:35:12.220Z,0.87
2018-08-10T17:37:41.396Z,0.73
2018-08-10T17:40:10.071Z,0.73
2018-08-10T17:42:38.560Z,0.80
2018-08-10T17:45:11.827Z,0.73
2018-08-10T17:47:40.071Z,0.70
2018-08-10T17:50:11.667Z,0.60
2018-08-10T17:52:41.766Z,0.90
2018-08-10T17:55:09.949Z,0.60
2018-08-10T17:57:38.161Z,0.87
2018-08-10T18:00:08.404Z,0.70
2018-08-10T18:02:36.593Z,0.70
2018-08-10T18:05:06.748Z,1.10
2018-08-10T18:07:34.925Z,0.83
2018-08-10T18:10:03.167Z,0.80
2018-08-10T18:12:31.429Z,0.90
2018-08-10T18:14:59.612Z,0.80
2018-08-10T18:17:27.774Z,1.10
2018-08-10T18:19:56.002Z,0.90
2018-08-10T18:22:24.166Z,0.90
2018-08-10T18:24:52.322Z,1.10
2018-08-10T18:27:20.578Z,3.27
2018-08-10T18:29:48.699Z,1.10
2018-08-10T18:32:16.897Z,1.13
2018-08-10T18:34:45.068Z,1.10
2018-08-10T18:37:13.244Z,1.20
2018-08-10T18:39:41.451Z,1.17
2018-08-10T18:42:09.620Z,1.60
2018-08-10T18:44:37.807Z,1.43
2018-08-10T18:47:05.954Z,1.40
2018-08-10T18:49:34.139Z,1.17
2018-08-10T18:52:02.322Z,1.60
2018-08-10T18:54:30.502Z,1.20
2018-08-10T18:56:58.711Z,0.97
2018-08-10T18:59:27.314Z,1.10
2018-08-10T19:01:55.504Z,1.20
2018-08-10T19:04:23.670Z,1.00
2018-08-10T19:06:51.851Z,1.00
2018-08-10T19:09:20.022Z,0.80
2018-08-10T19:11:48.182Z,0.80
2018-08-10T19:14:20.241Z,0.90
2018-08-10T19:16:48.423Z,1.10
2018-08-10T19:19:16.595Z,1.00
2018-08-10T19:21:44.771Z,1.00
2018-08-10T19:24:12.968Z,1.50
2018-08-10T19:26:41.270Z,1.13
2018-08-10T19:29:09.448Z,1.17
2018-08-10T19:31:37.631Z,0.83
2018-08-10T19:34:05.846Z,1.27
2018-08-10T19:36:34.032Z,1.30
2018-08-10T19:39:02.193Z,1.40
2018-08-10T19:41:30.414Z,1.37
2018-08-10T19:43:58.573Z,1.90
2018-08-10T19:46:26.746Z,1.83
2018-08-10T19:48:54.933Z,1.67
2018-08-10T19:51:23.107Z,1.27
2018-08-10T19:53:51.267Z,1.40
2018-08-10T19:56:19.461Z,1.43
2018-08-10T19:58:47.647Z,1.10
2018-08-10T20:01:15.830Z,1.20
2018-08-10T20:03:44.024Z,1.23
2018-08-10T20:06:12.250Z,1.40
2018-08-10T20:08:40.431Z,1.20
2018-08-10T20:11:08.672Z,1.63
2018-08-10T20:13:36.849Z,1.80
2018-08-10T20:16:05.036Z,1.43
2018-08-10T20:18:38.451Z,1.40
2018-08-10T20:21:07.751Z,1.23
2018-08-10T20:23:37.520Z,1.50
2018-08-10T20:28:45.503Z,1.20
2018-08-10T20:31:13.640Z,1.30
2018-08-10T20:33:41.790Z,1.27
2018-08-10T20:36:09.922Z,1.13
2018-08-10T20:38:38.077Z,1.53
2018-08-10T20:41:06.218Z,1.80
2018-08-10T20:43:34.402Z,1.77
2018-08-10T20:46:02.602Z,1.83
2018-08-10T20:48:30.814Z,2.50
2018-08-10T20:50:58.957Z,3.30
2018-08-10T20:53:27.139Z,3.17
2018-08-10T20:55:55.287Z,4.10
2018-08-10T20:58:23.401Z,2.50
2018-08-10T21:00:51.609Z,1.83
2018-08-10T21:03:19.755Z,1.30
2018-08-10T21:05:47.926Z,1.50
2018-08-10T21:08:16.117Z,3.50
2018-08-10T21:10:44.241Z,4.80
2018-08-10T21:13:12.387Z,4.53
2018-08-10T21:15:40.519Z,2.07
2018-08-10T21:18:08.654Z,3.60
2018-08-10T21:20:36.777Z,3.83
2018-08-10T21:23:04.927Z,2.40
2018-08-10T21:25:33.070Z,2.70
2018-08-10T21:28:01.313Z,1.60
2018-08-10T21:30:29.468Z,1.57
2018-08-10T21:32:57.641Z,1.70
2018-08-10T21:35:25.777Z,1.83
2018-08-10T21:37:53.969Z,1.63
2018-08-10T21:40:22.058Z,2.40
2018-08-10T21:42:50.204Z,5.00
2018-08-10T21:45:18.349Z,1.83
2018-08-10T21:47:46.550Z,2.60
2018-08-10T21:50:15.246Z,2.57
2018-08-10T21:52:44.242Z,2.47
2018-08-10T21:55:12.613Z,2.27
2018-08-10T21:57:40.819Z,1.73
2018-08-10T22:00:18.303Z,1.90
2018-08-10T22:02:46.470Z,1.87
2018-08-10T22:05:14.670Z,1.77
2018-08-10T22:07:42.801Z,2.30
2018-08-10T22:10:10.998Z,1.57
2018-08-10T22:12:44.518Z,2.30
2018-08-10T22:15:18.202Z,2.00
2018-08-10T22:18:51.684Z,3.00
2018-08-10T22:21:19.839Z,1.60
2018-08-10T22:23:47.977Z,2.43
2018-08-10T22:26:16.211Z,1.67
2018-08-10T22:28:44.335Z,1.50
2018-08-10T22:31:12.598Z,2.00
2018-08-10T22:33:40.749Z,3.17
2018-08-10T22:36:08.929Z,1.90
2018-08-10T22:38:37.071Z,1.83
2018-08-10T22:41:05.275Z,1.50
2018-08-10T22:43:33.449Z,1.60
2018-08-10T22:46:01.610Z,1.60
2018-08-10T22:48:29.760Z,1.60
2018-08-10T22:50:57.908Z,1.53
2018-08-10T22:53:26.063Z,1.53
2018-08-10T22:55:54.263Z,1.70
2018-08-10T22:58:22.411Z,1.70
2018-08-10T23:00:50.633Z,1.60
2018-08-10T23:03:18.886Z,1.70
2018-08-10T23:05:46.938Z,1.40
2018-08-10T23:08:15.087Z,1.73
2018-08-10T23:10:43.254Z,1.60
2018-08-10T23:13:11.526Z,1.50
2018-08-10T23:15:39.731Z,1.40
2018-08-10T23:18:07.878Z,1.40
2018-08-10T23:20:36.085Z,1.40
2018-08-10T23:23:04.253Z,1.47
2018-08-10T23:25:32.405Z,1.33
2018-08-10T23:28:00.552Z,1.50
2018-08-10T23:30:28.743Z,1.50
2018-08-10T23:32:56.847Z,1.33
2018-08-10T23:35:24.986Z,1.40
2018-08-10T23:37:53.115Z,1.30
2018-08-10T23:40:21.265Z,1.40
2018-08-10T23:42:49.410Z,1.30
2018-08-10T23:45:17.564Z,1.30
2018-08-10T23:47:45.709Z,1.30
2018-08-10T23:50:15.059Z,1.30
2018-08-10T23:52:43.534Z,1.30
2018-08-10T23:55:12.485Z,1.70
2018-08-10T23:57:47.625Z,1.37
